Time;durP1;ratioP1;P1;durP2;ratioP2;P2;SDS_P1;SDS_P2;PMS_P1;PMS_P2;Temp;Humidity;BMP_temperature;BMP_pressure;BME280_temperature;BME280_humidity;BME280_pressure;Samples;Min_cycle;Max_cycle;Signal;HPM_P1;HPM_P2
2021/09/07 00:00:27;;;;;;;3.75;3.42;;;16.30;99.90;;;;;;6111511;23;20458;-91
2021/09/07 00:03:12;;;;;;;4.40;3.50;;;16.30;99.90;;;;;;6068084;23;20372;-90
2021/09/07 00:06:22;;;;;;;4.85;3.60;;;16.30;99.90;;;;;;5973743;23;20395;-87
2021/09/07 00:09:35;;;;;;;4.95;4.38;;;16.30;99.90;;;;;;6120072;23;20371;-92
2021/09/07 00:13:00;;;;;;;4.13;3.63;;;16.20;99.90;;;;;;6048445;23;20400;-90
2021/09/07 00:16:59;;;;;;;3.78;3.47;;;16.20;99.90;;;;;;6087733;23;20440;-89
2021/09/07 00:20:23;;;;;;;4.35;3.90;;;16.20;99.90;;;;;;6005596;23;20398;-89
2021/09/07 00:23:31;;;;;;;3.53;3.22;;;16.20;99.90;;;;;;5958364;23;20447;-89
2021/09/07 00:26:27;;;;;;;4.15;3.40;;;16.10;99.90;;;;;;6056200;23;20437;-90
2021/09/07 00:29:11;;;;;;;3.90;3.60;;;16.20;99.90;;;;;;6101359;23;20375;-88
2021/09/07 00:31:58;;;;;;;4.47;4.07;;;16.30;99.90;;;;;;6068059;23;20380;-87
2021/09/07 00:35:31;;;;;;;3.97;3.30;;;16.20;99.90;;;;;;6006469;23;20465;-88
2021/09/07 00:38:17;;;;;;;3.25;2.90;;;16.10;99.90;;;;;;6053793;23;20745;-89
2021/09/07 00:41:03;;;;;;;4.50;4.10;;;16.20;99.90;;;;;;6099439;23;20395;-88
2021/09/07 00:44:23;;;;;;;3.95;3.55;;;16.20;99.90;;;;;;6067927;23;20367;-89
2021/09/07 00:47:28;;;;;;;3.83;3.30;;;16.00;99.90;;;;;;6085077;23;20380;-87
2021/09/07 00:50:16;;;;;;;3.57;3.23;;;16.00;99.90;;;;;;6046607;23;20379;-91
2021/09/07 00:53:00;;;;;;;4.10;3.70;;;16.00;99.90;;;;;;6071428;23;20428;-91
2021/09/07 00:59:01;;;;;;;3.63;3.33;;;16.00;99.90;;;;;;6110403;23;20395;-89
2021/09/07 01:01:48;;;;;;;3.70;3.40;;;16.00;99.90;;;;;;6080063;23;20383;-91
2021/09/07 01:04:37;;;;;;;4.63;4.22;;;16.00;99.90;;;;;;6089171;23;20405;-90
2021/09/07 01:07:45;;;;;;;4.85;4.35;;;16.00;99.90;;;;;;6099186;23;20452;-87
2021/09/07 01:10:31;;;;;;;3.50;3.20;;;16.00;99.90;;;;;;6067394;23;20441;-87
2021/09/07 01:13:18;;;;;;;5.07;3.70;;;15.90;99.90;;;;;;6073447;23;20761;-91
2021/09/07 01:16:23;;;;;;;4.10;3.75;;;15.90;99.90;;;;;;6033974;23;20392;-87
2021/09/07 01:20:02;;;;;;;4.13;3.77;;;15.80;99.90;;;;;;6090566;23;20380;-91
2021/09/07 01:22:47;;;;;;;4.30;3.90;;;15.80;99.90;;;;;;6119488;23;20380;-90
2021/09/07 01:25:32;;;;;;;4.93;4.43;;;15.80;99.90;;;;;;6057942;23;20395;-90
2021/09/07 01:28:55;;;;;;;4.28;3.88;;;15.80;99.90;;;;;;5996881;23;20364;-87
2021/09/07 01:32:04;;;;;;;3.55;3.17;;;15.80;99.90;;;;;;6057263;23;20380;-90
2021/09/07 01:35:14;;;;;;;3.75;3.45;;;15.90;99.90;;;;;;6027270;23;20380;-86
2021/09/07 01:38:18;;;;;;;2.97;2.78;;;15.90;99.90;;;;;;6072322;23;21009;-89
2021/09/07 01:41:24;;;;;;;4.43;4.03;;;16.00;99.90;;;;;;6052497;23;20501;-89
2021/09/07 01:45:10;;;;;;;4.93;4.30;;;15.90;99.90;;;;;;6101261;23;20367;-86
2021/09/07 01:49:10;;;;;;;3.75;3.45;;;15.90;99.90;;;;;;6042307;23;20375;-89
2021/09/07 01:52:18;;;;;;;3.70;3.40;;;15.90;99.90;;;;;;6061559;23;20896;-91
2021/09/07 01:59:22;;;;;;;3.23;2.97;;;15.90;99.90;;;;;;6123920;23;20392;-89
2021/09/07 02:02:37;;;;;;;4.43;4.00;;;15.90;99.90;;;;;;6058266;23;20374;-89
2021/09/07 02:05:43;;;;;;;3.92;3.60;;;15.80;99.90;;;;;;6088231;23;20356;-90
2021/09/07 02:08:30;;;;;;;3.58;3.28;;;15.80;99.90;;;;;;6074341;23;20439;-86
2021/09/07 02:11:42;;;;;;;4.47;4.07;;;15.70;99.90;;;;;;6067304;23;20404;-89
2021/09/07 02:14:31;;;;;;;4.68;3.30;;;15.70;99.90;;;;;;6083893;23;20408;-87
2021/09/07 02:17:37;;;;;;;3.88;3.50;;;15.70;99.90;;;;;;6088968;23;20375;-87
2021/09/07 02:20:24;;;;;;;4.53;3.75;;;15.70;99.90;;;;;;6108934;23;20371;-87
2021/09/07 02:23:32;;;;;;;4.00;3.67;;;15.60;99.90;;;;;;6106870;23;20779;-87
2021/09/07 02:26:19;;;;;;;3.33;3.03;;;15.60;99.90;;;;;;6114331;23;20396;-90
2021/09/07 02:29:22;;;;;;;4.38;3.97;;;15.50;99.90;;;;;;6088005;23;20423;-93
2021/09/07 02:33:09;;;;;;;3.53;3.22;;;15.60;99.90;;;;;;6086580;23;20372;-90
2021/09/07 02:36:51;;;;;;;3.90;3.60;;;15.50;99.90;;;;;;6134027;23;20387;-90
2021/09/07 02:40:57;;;;;;;4.35;3.60;;;15.60;99.90;;;;;;6142068;23;20510;-88
2021/09/07 02:44:52;;;;;;;4.30;3.90;;;15.60;99.90;;;;;;6113928;23;20388;-90
2021/09/07 02:47:44;;;;;;;4.15;3.85;;;15.70;99.90;;;;;;6092747;23;20440;-90
2021/09/07 02:51:43;;;;;;;3.67;3.38;;;15.60;99.90;;;;;;6104106;23;20424;-92
2021/09/07 02:55:32;;;;;;;6.87;3.90;;;15.60;99.90;;;;;;5964417;23;20408;-87
2021/09/07 02:59:33;;;;;;;5.13;4.72;;;15.50;99.90;;;;;;5935012;23;20517;-86
2021/09/07 03:02:38;;;;;;;4.22;3.80;;;15.50;99.90;;;;;;5954668;23;20397;-89
2021/09/07 03:06:17;;;;;;;3.40;3.13;;;15.40;99.90;;;;;;5957781;23;20384;-87
2021/09/07 03:09:53;;;;;;;3.55;3.22;;;15.50;99.90;;;;;;5978850;24;20392;-89
2021/09/07 03:18:29;;;;;;;4.13;3.72;;;15.50;99.90;;;;;;5907520;23;20413;-89
2021/09/07 03:21:16;;;;;;;5.10;3.80;;;15.50;99.90;;;;;;6007111;23;20382;-86
2021/09/07 03:24:22;;;;;;;3.15;2.95;;;15.40;99.90;;;;;;5904639;23;20416;-86
2021/09/07 03:27:15;;;;;;;3.73;3.43;;;15.50;99.90;;;;;;6007579;23;20437;-86
2021/09/07 03:30:00;;;;;;;4.00;3.70;;;15.50;99.90;;;;;;6020143;23;20502;-86
2021/09/07 03:32:50;;;;;;;3.70;3.40;;;15.50;99.90;;;;;;6064580;23;20438;-89
2021/09/07 03:36:29;;;;;;;3.78;3.33;;;15.40;99.90;;;;;;6098307;23;20753;-89
2021/09/07 03:39:16;;;;;;;3.10;2.80;;;15.40;99.90;;;;;;6105511;23;20405;-88
2021/09/07 03:42:24;;;;;;;3.22;2.92;;;15.50;99.90;;;;;;6089011;23;20363;-87
2021/09/07 03:45:12;;;;;;;3.20;2.80;;;15.60;99.90;;;;;;6084481;23;20415;-86
2021/09/07 03:48:14;;;;;;;3.15;2.95;;;15.50;99.90;;;;;;6063894;23;20379;-86
2021/09/07 03:51:36;;;;;;;3.97;3.58;;;15.60;99.90;;;;;;6099790;23;20396;-86
2021/09/07 03:54:47;;;;;;;3.20;2.90;;;15.60;99.90;;;;;;6036110;23;20413;-87
2021/09/07 03:58:06;;;;;;;3.88;3.55;;;15.60;99.90;;;;;;6077579;23;20449;-84
2021/09/07 04:08:01;;;;;;;3.05;2.85;;;15.60;99.90;;;;;;6113849;23;20378;-88
2021/09/07 04:10:46;;;;;;;4.20;3.45;;;15.50;99.90;;;;;;6001773;23;20395;-84
2021/09/07 04:13:32;;;;;;;4.38;4.05;;;15.50;99.90;;;;;;6022835;23;20374;-88
2021/09/07 04:16:16;;;;;;;3.45;3.15;;;15.50;99.90;;;;;;5976045;23;20392;-87
2021/09/07 04:19:01;;;;;;;3.83;3.20;;;15.50;99.90;;;;;;6001049;23;20441;-84
2021/09/07 04:21:48;;;;;;;3.43;3.13;;;15.50;99.90;;;;;;6002969;23;20403;-85
2021/09/07 04:25:02;;;;;;;4.03;3.42;;;15.50;99.90;;;;;;5988442;23;20478;-88
2021/09/07 04:27:49;;;;;;;3.10;2.83;;;15.60;99.90;;;;;;6056601;23;20383;-81
2021/09/07 04:30:34;;;;;;;3.38;3.08;;;15.50;99.90;;;;;;6024041;23;20375;-88
2021/09/07 04:33:18;;;;;;;3.92;3.50;;;15.50;99.90;;;;;;6027089;23;20359;-91
2021/09/07 04:36:03;;;;;;;3.67;3.37;;;15.50;99.90;;;;;;6006831;23;20363;-85
2021/09/07 04:38:47;;;;;;;4.97;4.47;;;15.40;99.90;;;;;;6028998;23;20395;-92
2021/09/07 04:41:32;;;;;;;5.72;3.70;;;15.50;99.90;;;;;;6007924;23;20376;-86
2021/09/07 04:44:20;;;;;;;3.72;3.42;;;15.50;99.90;;;;;;6037914;23;20375;-90
2021/09/07 04:47:04;;;;;;;3.80;3.50;;;15.50;99.90;;;;;;6001211;23;20411;-92
2021/09/07 04:49:49;;;;;;;3.88;3.47;;;15.50;99.90;;;;;;6038690;23;20375;-84
2021/09/07 04:52:33;;;;;;;4.10;3.70;;;15.50;99.90;;;;;;5995241;23;20399;-80
2021/09/07 04:55:17;;;;;;;4.40;4.00;;;15.50;99.90;;;;;;6014472;23;20448;-82
2021/09/07 04:58:04;;;;;;;5.47;4.90;;;15.50;99.90;;;;;;5933274;23;20445;-88
2021/09/07 05:00:49;;;;;;;4.18;3.78;;;15.30;99.90;;;;;;6017301;23;20433;-84
2021/09/07 05:03:39;;;;;;;4.37;3.97;;;15.30;99.90;;;;;;6006975;23;20410;-81
2021/09/07 05:06:31;;;;;;;3.50;3.20;;;15.40;99.90;;;;;;5962172;23;20432;-85
2021/09/07 05:09:19;;;;;;;3.35;3.05;;;15.30;99.90;;;;;;6062776;23;20472;-86
2021/09/07 05:12:10;;;;;;;3.78;3.47;;;15.30;99.90;;;;;;6041414;23;20415;-83
2021/09/07 05:15:09;;;;;;;3.45;3.15;;;15.30;99.90;;;;;;5997044;23;20379;-82
2021/09/07 05:17:58;;;;;;;4.95;4.55;;;15.30;99.90;;;;;;6022021;23;20404;-83
2021/09/07 05:20:44;;;;;;;4.18;3.63;;;15.40;99.90;;;;;;5992185;23;20391;-85
2021/09/07 05:23:37;;;;;;;3.70;3.40;;;15.40;99.90;;;;;;6025562;23;20439;-84
2021/09/07 05:26:30;;;;;;;3.70;3.40;;;15.40;99.90;;;;;;5997119;23;20412;-83
2021/09/07 05:29:19;;;;;;;4.55;4.15;;;15.40;99.90;;;;;;6040065;23;20451;-85
2021/09/07 05:32:11;;;;;;;5.72;4.57;;;15.40;99.90;;;;;;5992860;23;20396;-81
2021/09/07 05:35:09;;;;;;;5.57;5.07;;;15.50;99.90;;;;;;6034746;23;20379;-84
2021/09/07 05:37:56;;;;;;;4.32;3.92;;;15.40;99.90;;;;;;6030700;23;20374;-85
2021/09/07 05:40:45;;;;;;;4.32;3.90;;;15.40;99.90;;;;;;5997877;23;20394;-85
2021/09/07 05:43:39;;;;;;;4.53;4.13;;;15.40;99.90;;;;;;5995718;23;20379;-81
2021/09/07 05:46:51;;;;;;;4.85;4.25;;;15.40;99.90;;;;;;5981247;23;20377;-81
2021/09/07 05:49:40;;;;;;;6.65;6.00;;;15.50;99.90;;;;;;6039983;23;20428;-86
2021/09/07 05:52:25;;;;;;;3.90;3.60;;;15.50;99.90;;;;;;6074525;23;20400;-82
2021/09/07 05:55:15;;;;;;;6.97;4.97;;;15.50;99.90;;;;;;6001269;23;20916;-82
2021/09/07 05:58:00;;;;;;;3.97;3.60;;;15.60;99.90;;;;;;6011282;23;20394;-85
2021/09/07 06:00:44;;;;;;;4.32;4.00;;;15.70;99.90;;;;;;6009463;23;20404;-83
2021/09/07 06:03:29;;;;;;;5.13;4.47;;;15.70;99.90;;;;;;5991478;23;20622;-85
2021/09/07 06:06:13;;;;;;;5.25;4.85;;;15.80;99.90;;;;;;6051878;23;20407;-87
2021/09/07 06:08:58;;;;;;;4.78;4.35;;;15.70;99.90;;;;;;6012458;23;20408;-85
2021/09/07 06:11:43;;;;;;;5.22;4.72;;;15.80;99.90;;;;;;6013925;23;20379;-85
2021/09/07 06:14:27;;;;;;;4.63;4.22;;;15.80;99.90;;;;;;6032372;23;20411;-84
2021/09/07 06:17:11;;;;;;;6.47;5.78;;;15.80;99.90;;;;;;6033532;23;20408;-84
2021/09/07 06:19:56;;;;;;;6.32;5.68;;;15.90;99.90;;;;;;5993744;23;20436;-88
2021/09/07 06:22:40;;;;;;;5.82;5.25;;;15.80;99.90;;;;;;6019627;23;20379;-86
2021/09/07 06:25:25;;;;;;;5.93;5.43;;;15.90;99.90;;;;;;5996717;23;20380;-85
2021/09/07 06:28:09;;;;;;;5.10;4.60;;;15.80;99.90;;;;;;6015717;23;20395;-87
2021/09/07 06:30:53;;;;;;;4.40;4.00;;;15.90;99.90;;;;;;6016250;23;20371;-84
2021/09/07 06:33:38;;;;;;;5.63;4.67;;;16.00;99.90;;;;;;6015658;23;20383;-89
2021/09/07 06:36:22;;;;;;;5.70;4.75;;;16.10;99.90;;;;;;6016328;23;20435;-87
2021/09/07 06:39:07;;;;;;;5.68;5.15;;;16.10;99.90;;;;;;5996015;23;20419;-81
2021/09/07 06:41:51;;;;;;;4.75;4.35;;;16.20;99.90;;;;;;5996607;23;20423;-86
2021/09/07 06:44:35;;;;;;;5.65;5.05;;;16.40;99.90;;;;;;6035356;23;20379;-88
2021/09/07 06:47:20;;;;;;;8.27;5.80;;;16.40;99.90;;;;;;6016536;23;20379;-85
2021/09/07 06:50:05;;;;;;;4.15;3.80;;;16.50;99.90;;;;;;5993464;23;20378;-83
2021/09/07 06:52:49;;;;;;;5.90;5.37;;;16.50;99.90;;;;;;6016575;23;20371;-83
2021/09/07 06:55:34;;;;;;;4.53;4.13;;;16.60;99.90;;;;;;5995579;23;20372;-84
2021/09/07 06:58:19;;;;;;;5.83;5.20;;;16.70;99.90;;;;;;6036554;23;20399;-82
2021/09/07 07:01:04;;;;;;;5.22;4.68;;;16.80;99.90;;;;;;5996904;23;20374;-86
2021/09/07 07:03:48;;;;;;;4.97;4.40;;;16.80;99.90;;;;;;5996424;23;20404;-85
2021/09/07 07:06:32;;;;;;;5.95;4.55;;;16.90;99.90;;;;;;5998044;23;20474;-83
2021/09/07 07:09:16;;;;;;;4.28;3.88;;;17.20;99.90;;;;;;5996636;23;20405;-89
2021/09/07 07:12:01;;;;;;;4.90;4.40;;;17.20;99.90;;;;;;6036205;23;20420;-84
2021/09/07 07:14:45;;;;;;;4.47;4.00;;;17.30;99.90;;;;;;6036587;23;20463;-82
2021/09/07 07:17:30;;;;;;;5.35;4.50;;;17.50;99.90;;;;;;5996314;23;20367;-81
2021/09/07 07:20:14;;;;;;;6.97;5.55;;;17.80;99.90;;;;;;5995554;23;20435;-83
2021/09/07 07:22:59;;;;;;;5.03;4.43;;;17.90;99.90;;;;;;6016519;23;20426;-88
2021/09/07 07:25:43;;;;;;;4.47;4.07;;;18.10;99.90;;;;;;5997116;23;20387;-85
2021/09/07 07:28:27;;;;;;;4.05;3.63;;;18.30;99.90;;;;;;6055261;23;20376;-84
2021/09/07 07:31:12;;;;;;;4.53;4.13;;;18.40;99.90;;;;;;6016706;23;20391;-86
2021/09/07 07:33:56;;;;;;;3.63;3.33;;;18.50;99.90;;;;;;6016809;23;20372;-88
2021/09/07 07:36:40;;;;;;;4.45;4.05;;;18.70;99.90;;;;;;5998576;23;20378;-86
2021/09/07 07:39:25;;;;;;;4.40;3.65;;;18.80;99.90;;;;;;5995137;23;20435;-84
2021/09/07 07:42:09;;;;;;;4.90;3.72;;;18.90;99.90;;;;;;6015365;23;20471;-87
2021/09/07 07:44:53;;;;;;;4.38;3.97;;;18.90;99.90;;;;;;5996471;23;20401;-86
2021/09/07 07:47:38;;;;;;;4.90;4.05;;;19.00;99.90;;;;;;5996160;23;20403;-90
2021/09/07 07:50:22;;;;;;;4.18;3.75;;;18.90;99.90;;;;;;6015756;23;20412;-86
2021/09/07 07:53:07;;;;;;;3.30;3.05;;;18.80;99.90;;;;;;5996638;23;20371;-85
2021/09/07 07:55:51;;;;;;;4.72;4.28;;;19.00;99.90;;;;;;5996595;23;20872;-87
2021/09/07 07:58:35;;;;;;;4.22;3.65;;;19.10;99.90;;;;;;6016298;23;20387;-88
2021/09/07 08:01:19;;;;;;;3.90;3.60;;;19.20;99.90;;;;;;5994220;23;20521;-85
2021/09/07 08:04:04;;;;;;;4.20;3.85;;;19.30;99.90;;;;;;6013949;23;20456;-89
2021/09/07 08:06:48;;;;;;;5.28;4.20;;;19.40;99.90;;;;;;6015039;23;21254;-87
2021/09/07 08:09:33;;;;;;;3.78;3.40;;;19.50;99.90;;;;;;5994547;23;20371;-86
2021/09/07 08:12:18;;;;;;;4.63;4.07;;;19.60;99.90;;;;;;5993900;23;20384;-87
2021/09/07 08:15:03;;;;;;;4.68;3.90;;;19.70;99.90;;;;;;6033874;23;20383;-90
2021/09/07 08:17:49;;;;;;;3.80;3.47;;;19.70;99.90;;;;;;6055173;23;21082;-85
2021/09/07 08:20:34;;;;;;;5.30;4.03;;;19.80;99.90;;;;;;6014917;23;20432;-85
2021/09/07 08:23:18;;;;;;;3.97;3.58;;;19.70;99.90;;;;;;5995460;23;20378;-83
2021/09/07 08:26:02;;;;;;;4.22;3.83;;;19.90;99.90;;;;;;5996324;23;20790;-85
2021/09/07 08:28:47;;;;;;;3.72;3.42;;;20.00;99.90;;;;;;5997407;23;20371;-88
2021/09/07 08:31:31;;;;;;;4.07;3.70;;;20.10;99.90;;;;;;5997577;23;20367;-88
2021/09/07 08:34:16;;;;;;;3.83;3.47;;;20.30;99.90;;;;;;5995324;23;20371;-87
2021/09/07 08:37:01;;;;;;;5.00;3.80;;;20.30;99.90;;;;;;6014013;23;20378;-87
2021/09/07 08:39:45;;;;;;;3.30;3.00;;;20.30;99.90;;;;;;6015424;23;20444;-86
2021/09/07 08:42:30;;;;;;;3.75;3.30;;;20.50;99.90;;;;;;6016529;23;20871;-87
2021/09/07 08:45:14;;;;;;;4.30;3.90;;;20.60;99.90;;;;;;6036500;23;20379;-88
2021/09/07 08:48:00;;;;;;;3.33;3.03;;;20.70;99.90;;;;;;5995556;23;20396;-84
2021/09/07 08:50:44;;;;;;;4.03;3.63;;;20.80;99.90;;;;;;5996447;23;20450;-86
2021/09/07 08:53:29;;;;;;;4.43;3.90;;;20.90;99.90;;;;;;5997013;23;20370;-85
2021/09/07 08:56:13;;;;;;;3.53;3.22;;;21.10;99.90;;;;;;5997356;23;20372;-89
2021/09/07 08:58:57;;;;;;;4.03;3.13;;;21.10;99.90;;;;;;6015717;23;20386;-89
2021/09/07 09:01:46;;;;;;;3.83;3.45;;;21.20;99.90;;;;;;6015438;23;20422;-85
2021/09/07 09:04:32;;;;;;;4.47;3.83;;;21.20;99.90;;;;;;6019237;23;20399;-90
2021/09/07 09:07:29;;;;;;;3.60;3.30;;;21.30;99.90;;;;;;5998802;23;20383;-84
2021/09/07 09:10:18;;;;;;;2.67;2.47;;;21.40;99.90;;;;;;6018639;23;20375;-85
2021/09/07 09:13:05;;;;;;;4.45;3.40;;;21.30;99.90;;;;;;5998139;23;20379;-84
2021/09/07 09:16:04;;;;;;;4.15;3.40;;;21.30;99.90;;;;;;6056644;23;20375;-82
2021/09/07 09:18:48;;;;;;;3.40;3.05;;;21.60;99.90;;;;;;6018618;23;20379;-86
2021/09/07 09:21:33;;;;;;;4.13;3.72;;;22.00;99.90;;;;;;6000235;23;20400;-86
2021/09/07 09:24:21;;;;;;;3.45;3.15;;;22.10;99.90;;;;;;5998585;23;20424;-86
2021/09/07 09:27:06;;;;;;;3.15;2.85;;;22.40;99.90;;;;;;6021020;23;20400;-87
2021/09/07 09:29:52;;;;;;;3.47;3.17;;;22.40;99.90;;;;;;5999403;23;20706;-86
2021/09/07 09:32:47;;;;;;;4.38;3.55;;;22.40;99.90;;;;;;6002180;23;20383;-85
2021/09/07 09:35:32;;;;;;;4.13;3.73;;;22.60;99.90;;;;;;5998878;23;20404;-86
2021/09/07 09:38:17;;;;;;;3.45;2.95;;;22.70;99.90;;;;;;6001353;23;20446;-87
2021/09/07 09:41:05;;;;;;;4.67;3.23;;;22.70;99.90;;;;;;6019944;23;20375;-83
2021/09/07 09:43:50;;;;;;;10.02;4.10;;;22.70;99.90;;;;;;6001359;23;20392;-88
2021/09/07 09:46:34;;;;;;;3.63;3.30;;;22.50;99.90;;;;;;5999151;23;20398;-86
2021/09/07 09:49:18;;;;;;;3.00;2.80;;;22.30;99.90;;;;;;6019353;23;20383;-90
2021/09/07 09:52:07;;;;;;;3.45;3.13;;;23.00;99.90;;;;;;6001432;23;20376;-92
2021/09/07 09:54:51;;;;;;;4.10;3.43;;;23.40;99.90;;;;;;6020693;23;20399;-88
2021/09/07 09:57:36;;;;;;;3.72;3.15;;;23.40;99.90;;;;;;6002616;23;20403;-89
2021/09/07 10:00:20;;;;;;;4.68;3.05;;;23.30;99.90;;;;;;6021694;23;20379;-88
2021/09/07 10:03:08;;;;;;;3.95;3.65;;;23.20;99.90;;;;;;6001337;23;20449;-85
2021/09/07 10:05:52;;;;;;;2.80;2.60;;;23.10;99.90;;;;;;6001364;23;20403;-88
2021/09/07 10:08:40;;;;;;;3.42;2.90;;;23.80;99.90;;;;;;6000690;23;20387;-89
2021/09/07 10:11:27;;;;;;;2.92;2.70;;;24.60;99.90;;;;;;6022498;23;20391;-88
2021/09/07 10:14:16;;;;;;;2.72;2.50;;;25.00;99.90;;;;;;6019626;23;20379;-90
2021/09/07 10:17:24;;;;;;;3.13;2.83;;;24.70;99.90;;;;;;6043183;23;20436;-90
2021/09/07 10:20:19;;;;;;;3.05;2.75;;;24.20;99.90;;;;;;6004577;23;20416;-89
2021/09/07 10:23:18;;;;;;;3.33;3.03;;;24.30;99.90;;;;;;6005204;23;20401;-91
2021/09/07 10:26:03;;;;;;;3.25;2.95;;;24.40;99.90;;;;;;6009041;23;20431;-91
2021/09/07 10:28:57;;;;;;;3.83;3.43;;;25.00;99.90;;;;;;6009576;23;20428;-88
2021/09/07 10:31:54;;;;;;;3.58;3.28;;;25.60;99.90;;;;;;5998274;23;20891;-91
2021/09/07 10:35:15;;;;;;;3.53;3.00;;;25.70;99.90;;;;;;5996179;23;20396;-92
2021/09/07 10:38:09;;;;;;;7.30;3.22;;;25.90;99.90;;;;;;5990311;23;20383;-90
2021/09/07 10:40:56;;;;;;;2.97;2.78;;;25.60;99.90;;;;;;6062016;23;20404;-88
2021/09/07 10:43:57;;;;;;;2.72;2.53;;;25.30;99.90;;;;;;6023164;23;20399;-91
2021/09/07 10:46:56;;;;;;;2.85;2.40;;;25.50;99.90;;;;;;6058607;23;20392;-90
2021/09/07 10:49:44;;;;;;;3.22;2.92;;;25.60;99.90;;;;;;6042749;23;20400;-90
2021/09/07 10:52:33;;;;;;;2.90;2.70;;;25.60;99.90;;;;;;6062298;23;20359;-85
2021/09/07 10:55:19;;;;;;;2.63;2.43;;;25.50;99.90;;;;;;6023618;23;20400;-86
2021/09/07 10:58:04;;;;;;;3.13;2.83;;;25.20;99.90;;;;;;6002766;23;20379;-89
2021/09/07 11:00:53;;;;;;;3.15;2.85;;;25.00;99.90;;;;;;6040211;23;20403;-93
2021/09/07 11:03:41;;;;;;;4.38;2.88;;;25.50;99.90;;;;;;6061296;23;20426;-92
2021/09/07 11:07:52;;;;;;;2.80;2.60;;;26.10;99.90;;;;;;6050396;23;20410;-92
2021/09/07 12:57:47;;;;;;;2.08;1.98;;;27.90;93.40;;;;;;6169108;23;20358;-92
2021/09/07 13:00:36;;;;;;;2.95;2.28;;;27.70;94.90;;;;;;6158966;23;20400;-90
2021/09/07 13:03:54;;;;;;;2.30;2.10;;;28.10;94.40;;;;;;6126287;23;20398;-90
2021/09/07 13:21:50;;;;;;;2.03;1.93;;;28.50;93.60;;;;;;6086185;23;20415;-90
2021/09/07 13:24:43;;;;;;;2.40;2.20;;;28.20;94.20;;;;;;6063641;23;20367;-89
2021/09/07 15:01:51;;;;;;;1.80;1.70;;;28.90;84.60;;;;;;6109070;23;20380;-90
2021/09/07 15:04:43;;;;;;;1.60;1.50;;;28.20;87.20;;;;;;6095943;23;20368;-84
2021/09/07 15:10:35;;;;;;;1.90;1.77;;;28.20;87.30;;;;;;6179163;23;20397;-89
2021/09/07 15:16:42;;;;;;;2.50;2.30;;;27.80;90.50;;;;;;6146059;23;20398;-88
2021/09/07 15:19:29;;;;;;;2.33;2.13;;;27.60;89.40;;;;;;6110082;23;20386;-88
2021/09/07 15:22:20;;;;;;;1.98;1.88;;;27.50;90.40;;;;;;6172806;23;20378;-89
2021/09/07 15:25:09;;;;;;;2.42;2.22;;;27.50;90.50;;;;;;6133280;23;20362;-86
2021/09/07 15:27:59;;;;;;;2.00;1.85;;;27.50;89.60;;;;;;6152931;23;20367;-83
2021/09/07 15:30:50;;;;;;;2.00;1.90;;;27.30;90.60;;;;;;6140010;23;20409;-86
2021/09/07 15:33:38;;;;;;;2.20;2.03;;;27.00;90.90;;;;;;6132878;23;20386;-90
2021/09/07 15:36:26;;;;;;;2.25;2.05;;;26.60;91.20;;;;;;6132689;23;20370;-90
2021/09/07 15:39:16;;;;;;;2.53;2.33;;;26.60;91.80;;;;;;6150416;23;20390;-90
2021/09/07 15:42:04;;;;;;;2.35;2.15;;;26.50;91.50;;;;;;6130039;23;20502;-91
2021/09/07 15:44:49;;;;;;;1.90;1.80;;;26.60;91.50;;;;;;6130749;23;20358;-91
2021/09/07 15:47:40;;;;;;;2.63;2.05;;;26.80;91.80;;;;;;6152528;23;20398;-89
2021/09/07 15:50:26;;;;;;;2.25;2.15;;;27.00;91.50;;;;;;6111434;23;20489;-90
2021/09/07 15:53:13;;;;;;;2.45;2.15;;;26.80;91.90;;;;;;6131284;23;20362;-92
2021/09/07 15:56:01;;;;;;;2.05;1.92;;;26.80;92.20;;;;;;6131514;23;20394;-91
2021/09/07 15:58:49;;;;;;;2.58;2.38;;;26.50;91.30;;;;;;6130076;23;20385;-92
2021/09/07 16:01:35;;;;;;;2.78;2.45;;;26.10;92.00;;;;;;6132333;23;20377;-91
2021/09/07 16:07:18;;;;;;;1.90;1.80;;;25.70;92.50;;;;;;6172452;23;20347;-84
2021/09/07 16:10:03;;;;;;;2.50;2.08;;;25.60;92.50;;;;;;6059551;23;20359;-84
2021/09/07 16:12:48;;;;;;;1.83;1.73;;;25.40;93.00;;;;;;6091606;23;20380;-87
2021/09/07 16:15:32;;;;;;;2.20;2.00;;;25.30;93.10;;;;;;6087194;23;20420;-85
2021/09/07 16:18:17;;;;;;;2.30;1.83;;;25.10;92.90;;;;;;6090475;23;21001;-86
2021/09/07 16:21:03;;;;;;;1.88;1.77;;;25.00;93.40;;;;;;6089062;23;20401;-87
2021/09/07 16:23:47;;;;;;;1.70;1.60;;;24.90;93.70;;;;;;6068965;23;20375;-88
2021/09/07 16:26:31;;;;;;;2.25;2.05;;;24.90;93.90;;;;;;6089516;23;20368;-84
2021/09/07 16:29:16;;;;;;;2.25;2.05;;;24.70;94.10;;;;;;6049874;23;20371;-85
2021/09/07 16:32:00;;;;;;;2.15;2.00;;;24.50;94.30;;;;;;6089912;23;20416;-86
2021/09/07 16:34:45;;;;;;;1.80;1.70;;;24.50;95.20;;;;;;6066258;23;20399;-89
2021/09/07 16:37:31;;;;;;;2.30;2.10;;;24.50;95.30;;;;;;6089947;23;20371;-83
2021/09/07 16:40:15;;;;;;;1.90;1.80;;;24.40;95.40;;;;;;6090216;23;20403;-84
2021/09/07 16:42:59;;;;;;;2.35;2.15;;;24.40;95.50;;;;;;6087814;23;20865;-86
2021/09/07 16:45:44;;;;;;;1.90;1.80;;;24.30;95.30;;;;;;6070991;23;20372;-82
2021/09/07 16:48:31;;;;;;;2.00;1.90;;;24.20;95.60;;;;;;6071378;23;20376;-83
2021/09/07 16:51:17;;;;;;;2.00;1.90;;;24.10;95.30;;;;;;6088240;23;20901;-83
2021/09/07 16:56:56;;;;;;;2.03;1.60;;;23.90;96.20;;;;;;6094484;23;20380;-87
2021/09/07 16:59:44;;;;;;;1.88;1.77;;;23.80;96.10;;;;;;6068922;23;20469;-87
2021/09/07 17:02:33;;;;;;;1.73;1.63;;;23.70;96.50;;;;;;6088556;23;20451;-84
2021/09/07 17:05:17;;;;;;;1.67;1.57;;;23.50;96.60;;;;;;6086747;23;20431;-82
2021/09/07 17:10:46;;;;;;;2.10;1.88;;;23.30;98.00;;;;;;6061556;23;20453;-81
2021/09/07 17:13:31;;;;;;;1.88;1.70;;;23.20;98.10;;;;;;6061774;23;20753;-80
2021/09/07 17:16:15;;;;;;;2.17;1.83;;;23.00;98.90;;;;;;6082781;23;20372;-83
2021/09/07 17:19:04;;;;;;;1.90;1.80;;;22.80;99.20;;;;;;6083253;23;21108;-81
2021/09/07 17:21:49;;;;;;;1.70;1.60;;;22.80;99.90;;;;;;6085636;23;20376;-83
2021/09/07 17:24:34;;;;;;;1.80;1.70;;;22.70;99.90;;;;;;6080948;23;20419;-87
2021/09/07 17:27:18;;;;;;;1.73;1.63;;;22.60;99.90;;;;;;6063600;23;20376;-81
2021/09/07 17:30:03;;;;;;;1.88;1.77;;;22.50;99.90;;;;;;6041993;23;20371;-85
2021/09/07 17:33:01;;;;;;;2.03;1.93;;;22.30;99.90;;;;;;6080795;23;20376;-82
2021/09/07 17:38:39;;;;;;;1.70;1.60;;;22.10;99.90;;;;;;6080809;23;20416;-81
2021/09/07 17:42:06;;;;;;;1.90;1.80;;;21.90;99.90;;;;;;6102969;23;20915;-81
2021/09/07 17:44:31;;;;;;;2.00;1.90;;;21.80;99.90;;;;;;6097243;23;20368;-84
2021/09/07 17:47:15;;;;;;;2.03;1.93;;;21.70;99.90;;;;;;6108234;23;20412;-81
2021/09/07 17:50:00;;;;;;;1.70;1.60;;;21.50;99.90;;;;;;6064761;23;20376;-84
2021/09/07 17:52:44;;;;;;;2.38;2.08;;;21.40;99.90;;;;;;6091121;23;20356;-85
2021/09/07 17:55:29;;;;;;;2.07;1.93;;;21.30;99.90;;;;;;6092531;23;20375;-86
2021/09/07 17:58:14;;;;;;;2.30;2.10;;;21.10;99.90;;;;;;6098164;23;20372;-81
2021/09/07 18:00:58;;;;;;;2.38;1.98;;;20.90;99.90;;;;;;6061959;23;20379;-82
2021/09/07 18:03:43;;;;;;;1.95;1.80;;;20.80;99.90;;;;;;6091327;23;20368;-86
2021/09/07 18:06:27;;;;;;;2.47;2.28;;;20.60;99.90;;;;;;6091180;23;20500;-83
2021/09/07 18:09:11;;;;;;;1.90;1.80;;;20.50;99.90;;;;;;6047341;23;20379;-85
2021/09/07 18:11:56;;;;;;;2.10;2.00;;;20.30;99.90;;;;;;6068768;23;20391;-85
2021/09/07 18:14:40;;;;;;;3.70;2.05;;;20.20;99.90;;;;;;6089410;23;20380;-84
2021/09/07 18:17:28;;;;;;;2.05;1.92;;;20.10;99.90;;;;;;6069015;23;20476;-85
2021/09/07 18:20:13;;;;;;;2.53;2.33;;;20.00;99.90;;;;;;6068431;23;20383;-84
2021/09/07 18:22:57;;;;;;;2.05;1.95;;;19.80;99.90;;;;;;6066512;23;20400;-84
2021/09/07 18:25:41;;;;;;;1.90;1.80;;;19.70;99.90;;;;;;6049330;23;20368;-85
2021/09/07 18:28:26;;;;;;;2.00;1.80;;;19.60;99.90;;;;;;6067633;23;20459;-91
2021/09/07 18:31:10;;;;;;;2.10;1.90;;;19.50;99.90;;;;;;6089444;23;20423;-83
2021/09/07 18:33:54;;;;;;;2.35;2.15;;;19.50;99.90;;;;;;6067469;23;20494;-84
2021/09/07 18:36:39;;;;;;;1.90;1.77;;;19.40;99.90;;;;;;6090251;23;20387;-88
2021/09/07 18:39:23;;;;;;;2.20;2.00;;;19.40;99.90;;;;;;6068340;23;20415;-87
2021/09/07 18:42:08;;;;;;;2.00;1.90;;;19.40;99.90;;;;;;6092043;23;20419;-88
2021/09/07 18:44:52;;;;;;;2.70;2.35;;;19.30;99.90;;;;;;6112505;23;20396;-82
2021/09/07 18:47:37;;;;;;;2.60;1.90;;;19.10;99.90;;;;;;6091005;23;20408;-86
2021/09/07 18:50:21;;;;;;;1.92;1.83;;;19.00;99.90;;;;;;6089620;23;20383;-87
2021/09/07 18:53:06;;;;;;;2.20;2.10;;;19.00;99.90;;;;;;6091688;23;20415;-90
2021/09/07 18:55:50;;;;;;;2.90;2.50;;;18.80;99.90;;;;;;6073302;23;20372;-90
2021/09/07 18:58:35;;;;;;;2.15;1.95;;;18.70;99.90;;;;;;6088501;23;20446;-83
2021/09/07 19:01:19;;;;;;;2.80;2.60;;;18.60;99.90;;;;;;6090784;23;20852;-82
2021/09/07 19:04:06;;;;;;;2.28;2.17;;;18.50;99.90;;;;;;6090993;23;20396;-87
2021/09/07 19:06:51;;;;;;;1.95;1.85;;;18.40;99.90;;;;;;6050118;23;20387;-83
2021/09/07 19:09:35;;;;;;;4.80;2.80;;;18.30;99.90;;;;;;6091894;23;20368;-89
2021/09/07 19:12:22;;;;;;;2.80;2.60;;;18.20;99.90;;;;;;6093752;23;20380;-88